Igor I Sikorsky Memorial Airport
KBDR : now visible

Airfield :











YOU CAN JOIN US ON...

 
LOGIN :

Register | Disclaimer

   EN    FR    IT 

 









Legend :    VFR   Marginal VFR   IFR   Intensive IFR   Very Intensive IFR
Visi :
Ceiling :
>= 8 km
>= 3000ft
5 to 8 km
1000 to 3000 ft
1500m to 5 km
500 to 1000 ft
800 to 1500m
200 to 500 ft
< 800m
< 200 ft
Symbols :   Thunderstorms  Fog  Heavy snow  Heavy precipitations  Wind > 20 kt






- Airport Elevation : 9 ft
- IATA code : BDR


KBDR - Igor I Sikorsky Memorial

CURRENT METAR :
  • 221052Z 28017G25KT 10SM CLR 02/M07 A2977 RMK AO2 SLP079 T00221072

EXPIRED METARs :
  • 220952Z AUTO 28011G21KT 10SM CLR 02/M08 A2974 RMK AO2 SLP070 T00171078
  • 220852Z AUTO 28011G18KT 10SM CLR 02/M07 A2973 RMK AO2 SLP068 T00171072 53006

TAF KBDR
Valid from the 22 at 12:00 until the 23 at 12:00 UTC


221133Z 2212/2312 29014G25KT P6SM SCT050
FM221400 28018G31KT P6SM SCT060
FM222300 28016G28KT P6SM SCT060
FM230200 28011G18KT P6SM FEW060
KZBW FIR / North America



MET'MAP, your aeronautical weather chart ! - Copyright ORBIFLY December 2007 - Disclaimer

ORBIFLY MET'MAP TEAM :

Programming & Development : Alexandra Zaïnal
Concept & original design : Baudouin d'Aumeries
Assistance for programming : Marc-Olivier Méhu
Technical & hardware support : Manuel Goepfert

Contact : metmap@orbifly.com




SOURCES & CREDITS :

   NOAA       Earth
Advisory